Colmar — DG3933 — position and weather

sailwx.info

Track history (hours):
 
Tides and Currents Weather Stations Pressure Air Temp Water Temp Dewpoint Dewpoint Depression Visibility Wind Speed Wind Dir Waves Ship Positions

Colmar

Last reported at 2017-Dec-09 13:02 UTC. Time now 2017-Dec-14 06:28 UTC.
Position N 46°01' E 018°41'.

Length 255 m; draft 2.1 m.

Type: Cargo ship. MMSI: 211557960.

Date/timePositionNaut miles runAvg speedWind from/ knotsBaromVisibWave heightAir tempDewpointWater temp
2017-Dec-09 13:02N 46°01' E 018°41'0 2.8
2017-Dec-09 13:01N 46°01' E 018°41'1 0.3
2017-Dec-09 11:16N 46°00' E 018°41'0 0.0
2017-Dec-09 10:34N 46°00' E 018°41'0 0.0
2017-Dec-09 10:29N 46°00' E 018°41'0 0.0
2017-Dec-09 10:00N 46°00' E 018°41'0 0.0
2017-Dec-09 09:25N 46°00' E 018°41'0 0.0
2017-Dec-09 08:58N 46°00' E 018°41'0 0.0
2017-Dec-09 08:24N 46°00' E 018°41'0 0.0
2017-Dec-09 07:59N 46°00' E 018°41'0 0.0
2017-Dec-09 07:18N 46°00' E 018°41'0 0.0
2017-Dec-09 06:59N 46°00' E 018°41'0 0.0
2017-Dec-09 06:30N 46°00' E 018°41'0 0.1
2017-Dec-09 06:00N 46°00' E 018°41'1 2.8
2017-Dec-09 05:29N 45°59' E 018°43'1 2.9
2017-Dec-09 05:00N 45°58' E 018°44'2 2.6
2017-Dec-09 04:15N 45°57' E 018°46'1 2.5
2017-Dec-09 04:00N 45°56' E 018°46'1 2.8
2017-Dec-09 03:30N 45°55' E 018°48'1 2.8
2017-Dec-09 03:00N 45°54' E 018°49'1 2.5
2017-Dec-09 02:30N 45°53' E 018°50'1 2.4
2017-Dec-09 02:00N 45°52' E 018°51'1 2.3
2017-Dec-09 01:30N 45°51' E 018°51'1 1.6
2017-Dec-09 01:00N 45°50' E 018°51'1 1.5
2017-Dec-09 00:29N 45°51' E 018°52'0 0.0
2017-Dec-09 00:00N 45°51' E 018°52'0 0.0
2017-Dec-08 23:30N 45°51' E 018°52'1 1.4
2017-Dec-08 23:00N 45°50' E 018°51'0 0.8
2017-Dec-08 22:30N 45°50' E 018°51'1 3.0
2017-Dec-08 22:00N 45°48' E 018°51'1 2.7
2017-Dec-08 21:30N 45°47' E 018°52'1 2.7
2017-Dec-08 21:00N 45°47' E 018°53'1 2.8
2017-Dec-08 20:31N 45°45' E 018°54'1 2.9
2017-Dec-08 20:01N 45°44' E 018°54'2 3.0
2017-Dec-08 19:31N 45°42' E 018°55'1 2.8
2017-Dec-08 19:01N 45°41' E 018°56'1 2.6
2017-Dec-08 18:31N 45°41' E 018°57'1 2.2
2017-Dec-08 18:01N 45°39' E 018°58'1 3.0
2017-Dec-08 17:31N 45°38' E 018°56'1 2.4
2017-Dec-08 17:01N 45°38' E 018°55'1 2.6
2017-Dec-08 16:31N 45°36' E 018°54'1 2.4
2017-Dec-08 16:01N 45°35' E 018°54'1 2.8
2017-Dec-08 15:31N 45°34' E 018°53'2 3.1
2017-Dec-08 15:01N 45°33' E 018°55'1 2.8
2017-Dec-08 14:31N 45°32' E 018°57'1 2.6
2017-Dec-08 14:01N 45°32' E 018°59'1 2.7
2017-Dec-08 13:30N 45°33' E 019°00'1 2.0
2017-Dec-08 13:01N 45°33' E 019°01'1 2.8
2017-Dec-08 12:31N 45°32' E 019°02'1 2.9
2017-Dec-08 12:01N 45°32' E 019°04'1 2.6
2017-Dec-08 11:31N 45°31' E 019°06'1 2.5
2017-Dec-08 11:01N 45°30' E 019°06'1 2.9
2017-Dec-08 10:31N 45°29' E 019°04'2 3.0
2017-Dec-08 10:01N 45°29' E 019°02'1 2.8
2017-Dec-08 09:31N 45°30' E 019°00'1 3.0
2017-Dec-08 09:01N 45°28' E 018°59'1 3.0
2017-Dec-08 08:31N 45°27' E 018°59'2 3.0
2017-Dec-08 07:58N 45°26' E 019°01'1 2.6
2017-Dec-08 07:31N 45°25' E 019°02'1 2.4
2017-Dec-08 07:01N 45°24' E 019°01'1 2.9
2017-Dec-08 06:31N 45°24' E 018°59'1 2.7
2017-Dec-08 06:01N 45°22' E 018°59'2 3.0
2017-Dec-08 05:31N 45°21' E 019°00'1 3.0
2017-Dec-08 05:00N 45°21' E 019°02'2 3.1
2017-Dec-08 04:31N 45°21' E 019°04'1 2.7
2017-Dec-08 04:01N 45°20' E 019°06'2 3.0
2017-Dec-08 03:31N 45°18' E 019°06'1 2.5
2017-Dec-08 03:00N 45°17' E 019°07'1 3.0
2017-Dec-08 02:31N 45°17' E 019°09'1 2.7
2017-Dec-08 02:01N 45°16' E 019°11'1 2.8
2017-Dec-08 01:31N 45°16' E 019°13'1 2.6
2017-Dec-08 01:00N 45°15' E 019°14'1 1.9
2017-Dec-08 00:31N 45°15' E 019°15'1 2.9
2017-Dec-08 00:01N 45°14' E 019°17'2 3.1
2017-Dec-07 23:31N 45°14' E 019°20'2 3.0
2017-Dec-07 23:01N 45°14' E 019°22'1 2.7
2017-Dec-07 22:31N 45°14' E 019°24'1 2.9
2017-Dec-07 22:01N 45°14' E 019°26'  
2017-Dec-04 10:31N 44°39' E 022°33'0 0.1
2017-Dec-04 10:01N 44°39' E 022°33'0 0.0
2017-Dec-04 09:31N 44°39' E 022°33'0 0.1
2017-Dec-04 09:01N 44°39' E 022°33'1 1.8
2017-Dec-04 08:31N 44°39' E 022°34'1 2.5
2017-Dec-04 08:01N 44°38' E 022°35'1 2.5
2017-Dec-04 07:31N 44°37' E 022°37'1 2.3
2017-Dec-04 07:01N 44°37' E 022°38'1 2.3
2017-Dec-04 06:31N 44°37' E 022°40'1 2.9
2017-Dec-04 06:01N 44°37' E 022°42'1 2.7
2017-Dec-04 05:31N 44°36' E 022°43'2 3.6
2017-Dec-04 05:00N 44°34' E 022°45'2 3.6
2017-Dec-04 04:31N 44°33' E 022°46'1 3.0
2017-Dec-04 04:01N 44°32' E 022°44'2 3.5
2017-Dec-04 03:31N 44°31' E 022°42'2 3.7
2017-Dec-04 03:00N 44°32' E 022°40'2 4.0
2017-Dec-04 02:30N 44°33' E 022°37'2 3.7
2017-Dec-04 02:00N 44°33' E 022°35'2 3.7
2017-Dec-04 01:30N 44°31' E 022°34'2 3.7
2017-Dec-04 01:00N 44°29' E 022°33'2 3.6
2017-Dec-04 00:30N 44°28' E 022°31'2 3.7
2017-Dec-04 00:00N 44°29' E 022°28'1 2.8
2017-Dec-03 23:31N 44°27' E 022°28'2 3.4
2017-Dec-03 23:00N 44°26' E 022°29'2 3.3
2017-Dec-03 22:31N 44°25' E 022°30'2 3.5
2017-Dec-03 22:01N 44°23' E 022°30'2 3.5
2017-Dec-03 21:31N 44°21' E 022°31'2 3.4
2017-Dec-03 21:01N 44°20' E 022°32'1 2.8
2017-Dec-03 20:31N 44°19' E 022°34'0 0.4
2017-Dec-03 20:01N 44°19' E 022°34'0 0.2
2017-Dec-03 19:31N 44°19' E 022°34'1 2.9
2017-Dec-03 19:01N 44°18' E 022°36'1 2.6
2017-Dec-03 18:31N 44°18' E 022°38'1 2.5
2017-Dec-03 18:01N 44°17' E 022°39'1 2.7
2017-Dec-03 17:31N 44°17' E 022°41'1 2.6
2017-Dec-03 17:01N 44°15' E 022°41'1 2.5
2017-Dec-03 16:31N 44°14' E 022°41'1 2.1
2017-Dec-03 16:01N 44°13' E 022°41'1 2.0
2017-Dec-03 15:31N 44°12' E 022°42'1 2.7
2017-Dec-03 15:00N 44°12' E 022°44'1 2.0
2017-Dec-03 14:30N 44°12' E 022°45'1 1.8
2017-Dec-03 14:00N 44°11' E 022°46'1 2.6
2017-Dec-03 13:30N 44°10' E 022°47'1 2.9
2017-Dec-03 13:00N 44°09' E 022°49'1 2.8
2017-Dec-03 12:30N 44°09' E 022°50'1 2.4
2017-Dec-03 12:00N 44°08' E 022°52'1 2.8
2017-Dec-03 11:30N 44°07' E 022°53'1 2.7
2017-Dec-03 11:00N 44°06' E 022°55'1 2.3
2017-Dec-03 10:30N 44°06' E 022°56'1 2.8
2017-Dec-03 10:00N 44°06' E 022°58'1 2.9
2017-Dec-03 09:30N 44°06' E 023°00'1 3.0
2017-Dec-03 09:00N 44°05' E 023°02'1 2.7
2017-Dec-03 08:30N 44°04' E 023°03'1 2.7
2017-Dec-03 08:00N 44°02' E 023°02'1 2.7
2017-Dec-03 07:30N 44°01' E 023°01'1 2.5
2017-Dec-03 07:00N 44°01' E 022°60'1 2.9
2017-Dec-03 06:30N 44°00' E 022°58'1 2.8
2017-Dec-03 06:00N 44°00' E 022°56'1 3.0
2017-Dec-03 05:30N 43°60' E 022°54'1 2.8
2017-Dec-03 05:00N 43°59' E 022°53'2 3.1
2017-Dec-03 04:30N 43°57' E 022°52'2 3.5
2017-Dec-03 04:00N 43°55' E 022°52'1 2.8
2017-Dec-03 03:30N 43°54' E 022°51'1 2.5
2017-Dec-03 03:00N 43°53' E 022°50'2 3.0
2017-Dec-03 02:30N 43°51' E 022°51'1 2.8
2017-Dec-03 02:00N 43°50' E 022°52'1 2.8
2017-Dec-03 01:30N 43°50' E 022°54'2 3.1
2017-Dec-03 01:00N 43°49' E 022°56'1 2.9
2017-Dec-03 00:30N 43°49' E 022°58'1 2.9
2017-Dec-03 00:00N 43°49' E 022°60'2 3.1
2017-Dec-02 23:30N 43°48' E 023°02'1 2.4
2017-Dec-02 22:59N 43°48' E 023°03'1 2.7
2017-Dec-02 22:30N 43°48' E 023°05'1 2.9
2017-Dec-02 22:00N 43°48' E 023°07'2 2.7
2017-Dec-02 21:26N 43°49' E 023°09'1 2.7
2017-Dec-02 21:00N 43°49' E 023°11'1 2.9
2017-Dec-02 20:30N 43°50' E 023°12'2 2.9
2017-Dec-02 19:48N 43°50' E 023°15'1 3.0
2017-Dec-02 19:30N 43°51' E 023°16'2 2.9
2017-Dec-02 19:00N 43°51' E 023°18'1 2.3
2017-Dec-02 18:30N 43°51' E 023°20'2 3.0
2017-Dec-02 17:57N 43°51' E 023°22'1 3.0
2017-Dec-02 17:29N 43°51' E 023°24'5 2.8
2017-Dec-02 15:36N 43°49' E 023°31'  
Track history (hours):
 
Tides and Currents Weather Stations Pressure Air Temp Water Temp Dewpoint Dewpoint Depression Visibility Wind Speed Wind Dir Waves Ship Positions

Colmar

Last reported at 2017-Dec-09 13:02 UTC. Time now 2017-Dec-14 06:28 UTC.
Position N 46°01' E 018°41'.

Length 255 m; draft 2.1 m.

Type: Cargo ship. MMSI: 211557960.

Date/timePositionNaut miles runAvg speedWind from/ knotsBaromVisibWave heightAir tempDewpointWater temp
2017-Dec-09 13:02N 46°01' E 018°41'0 2.8
2017-Dec-09 13:01N 46°01' E 018°41'1 0.3
2017-Dec-09 11:16N 46°00' E 018°41'0 0.0
2017-Dec-09 10:34N 46°00' E 018°41'0 0.0
2017-Dec-09 10:29N 46°00' E 018°41'0 0.0
2017-Dec-09 10:00N 46°00' E 018°41'0 0.0
2017-Dec-09 09:25N 46°00' E 018°41'0 0.0
2017-Dec-09 08:58N 46°00' E 018°41'0 0.0
2017-Dec-09 08:24N 46°00' E 018°41'0 0.0
2017-Dec-09 07:59N 46°00' E 018°41'0 0.0
2017-Dec-09 07:18N 46°00' E 018°41'0 0.0
2017-Dec-09 06:59N 46°00' E 018°41'0 0.0
2017-Dec-09 06:30N 46°00' E 018°41'0 0.1
2017-Dec-09 06:00N 46°00' E 018°41'1 2.8
2017-Dec-09 05:29N 45°59' E 018°43'1 2.9
2017-Dec-09 05:00N 45°58' E 018°44'2 2.6
2017-Dec-09 04:15N 45°57' E 018°46'1 2.5
2017-Dec-09 04:00N 45°56' E 018°46'1 2.8
2017-Dec-09 03:30N 45°55' E 018°48'1 2.8
2017-Dec-09 03:00N 45°54' E 018°49'1 2.5
2017-Dec-09 02:30N 45°53' E 018°50'1 2.4
2017-Dec-09 02:00N 45°52' E 018°51'1 2.3
2017-Dec-09 01:30N 45°51' E 018°51'1 1.6
2017-Dec-09 01:00N 45°50' E 018°51'1 1.5
2017-Dec-09 00:29N 45°51' E 018°52'0 0.0
2017-Dec-09 00:00N 45°51' E 018°52'0 0.0
2017-Dec-08 23:30N 45°51' E 018°52'1 1.4
2017-Dec-08 23:00N 45°50' E 018°51'0 0.8
2017-Dec-08 22:30N 45°50' E 018°51'1 3.0
2017-Dec-08 22:00N 45°48' E 018°51'1 2.7
2017-Dec-08 21:30N 45°47' E 018°52'1 2.7
2017-Dec-08 21:00N 45°47' E 018°53'1 2.8
2017-Dec-08 20:31N 45°45' E 018°54'1 2.9
2017-Dec-08 20:01N 45°44' E 018°54'2 3.0
2017-Dec-08 19:31N 45°42' E 018°55'1 2.8
2017-Dec-08 19:01N 45°41' E 018°56'1 2.6
2017-Dec-08 18:31N 45°41' E 018°57'1 2.2
2017-Dec-08 18:01N 45°39' E 018°58'1 3.0
2017-Dec-08 17:31N 45°38' E 018°56'1 2.4
2017-Dec-08 17:01N 45°38' E 018°55'1 2.6
2017-Dec-08 16:31N 45°36' E 018°54'1 2.4
2017-Dec-08 16:01N 45°35' E 018°54'1 2.8
2017-Dec-08 15:31N 45°34' E 018°53'2 3.1
2017-Dec-08 15:01N 45°33' E 018°55'1 2.8
2017-Dec-08 14:31N 45°32' E 018°57'1 2.6
2017-Dec-08 14:01N 45°32' E 018°59'1 2.7
2017-Dec-08 13:30N 45°33' E 019°00'1 2.0
2017-Dec-08 13:01N 45°33' E 019°01'1 2.8
2017-Dec-08 12:31N 45°32' E 019°02'1 2.9
2017-Dec-08 12:01N 45°32' E 019°04'1 2.6
2017-Dec-08 11:31N 45°31' E 019°06'1 2.5
2017-Dec-08 11:01N 45°30' E 019°06'1 2.9
2017-Dec-08 10:31N 45°29' E 019°04'2 3.0
2017-Dec-08 10:01N 45°29' E 019°02'1 2.8
2017-Dec-08 09:31N 45°30' E 019°00'1 3.0
2017-Dec-08 09:01N 45°28' E 018°59'1 3.0
2017-Dec-08 08:31N 45°27' E 018°59'2 3.0
2017-Dec-08 07:58N 45°26' E 019°01'1 2.6
2017-Dec-08 07:31N 45°25' E 019°02'1 2.4
2017-Dec-08 07:01N 45°24' E 019°01'1 2.9
2017-Dec-08 06:31N 45°24' E 018°59'1 2.7
2017-Dec-08 06:01N 45°22' E 018°59'2 3.0
2017-Dec-08 05:31N 45°21' E 019°00'1 3.0
2017-Dec-08 05:00N 45°21' E 019°02'2 3.1
2017-Dec-08 04:31N 45°21' E 019°04'1 2.7
2017-Dec-08 04:01N 45°20' E 019°06'2 3.0
2017-Dec-08 03:31N 45°18' E 019°06'1 2.5
2017-Dec-08 03:00N 45°17' E 019°07'1 3.0
2017-Dec-08 02:31N 45°17' E 019°09'1 2.7
2017-Dec-08 02:01N 45°16' E 019°11'1 2.8
2017-Dec-08 01:31N 45°16' E 019°13'1 2.6
2017-Dec-08 01:00N 45°15' E 019°14'1 1.9
2017-Dec-08 00:31N 45°15' E 019°15'1 2.9
2017-Dec-08 00:01N 45°14' E 019°17'2 3.1
2017-Dec-07 23:31N 45°14' E 019°20'2 3.0
2017-Dec-07 23:01N 45°14' E 019°22'1 2.7
2017-Dec-07 22:31N 45°14' E 019°24'1 2.9
2017-Dec-07 22:01N 45°14' E 019°26'  
2017-Dec-04 10:31N 44°39' E 022°33'0 0.1
2017-Dec-04 10:01N 44°39' E 022°33'0 0.0
2017-Dec-04 09:31N 44°39' E 022°33'0 0.1
2017-Dec-04 09:01N 44°39' E 022°33'1 1.8
2017-Dec-04 08:31N 44°39' E 022°34'1 2.5
2017-Dec-04 08:01N 44°38' E 022°35'1 2.5
2017-Dec-04 07:31N 44°37' E 022°37'1 2.3
2017-Dec-04 07:01N 44°37' E 022°38'1 2.3
2017-Dec-04 06:31N 44°37' E 022°40'1 2.9
2017-Dec-04 06:01N 44°37' E 022°42'1 2.7
2017-Dec-04 05:31N 44°36' E 022°43'2 3.6
2017-Dec-04 05:00N 44°34' E 022°45'2 3.6
2017-Dec-04 04:31N 44°33' E 022°46'1 3.0
2017-Dec-04 04:01N 44°32' E 022°44'2 3.5
2017-Dec-04 03:31N 44°31' E 022°42'2 3.7
2017-Dec-04 03:00N 44°32' E 022°40'2 4.0
2017-Dec-04 02:30N 44°33' E 022°37'2 3.7
2017-Dec-04 02:00N 44°33' E 022°35'2 3.7
2017-Dec-04 01:30N 44°31' E 022°34'2 3.7
2017-Dec-04 01:00N 44°29' E 022°33'2 3.6
2017-Dec-04 00:30N 44°28' E 022°31'2 3.7
2017-Dec-04 00:00N 44°29' E 022°28'1 2.8
2017-Dec-03 23:31N 44°27' E 022°28'2 3.4
2017-Dec-03 23:00N 44°26' E 022°29'2 3.3
2017-Dec-03 22:31N 44°25' E 022°30'2 3.5
2017-Dec-03 22:01N 44°23' E 022°30'2 3.5
2017-Dec-03 21:31N 44°21' E 022°31'2 3.4
2017-Dec-03 21:01N 44°20' E 022°32'1 2.8
2017-Dec-03 20:31N 44°19' E 022°34'0 0.4
2017-Dec-03 20:01N 44°19' E 022°34'0 0.2
2017-Dec-03 19:31N 44°19' E 022°34'1 2.9
2017-Dec-03 19:01N 44°18' E 022°36'1 2.6
2017-Dec-03 18:31N 44°18' E 022°38'1 2.5
2017-Dec-03 18:01N 44°17' E 022°39'1 2.7
2017-Dec-03 17:31N 44°17' E 022°41'1 2.6
2017-Dec-03 17:01N 44°15' E 022°41'1 2.5
2017-Dec-03 16:31N 44°14' E 022°41'1 2.1
2017-Dec-03 16:01N 44°13' E 022°41'1 2.0
2017-Dec-03 15:31N 44°12' E 022°42'1 2.7
2017-Dec-03 15:00N 44°12' E 022°44'1 2.0
2017-Dec-03 14:30N 44°12' E 022°45'1 1.8
2017-Dec-03 14:00N 44°11' E 022°46'1 2.6
2017-Dec-03 13:30N 44°10' E 022°47'1 2.9
2017-Dec-03 13:00N 44°09' E 022°49'1 2.8
2017-Dec-03 12:30N 44°09' E 022°50'1 2.4
2017-Dec-03 12:00N 44°08' E 022°52'1 2.8
2017-Dec-03 11:30N 44°07' E 022°53'1 2.7
2017-Dec-03 11:00N 44°06' E 022°55'1 2.3
2017-Dec-03 10:30N 44°06' E 022°56'1 2.8
2017-Dec-03 10:00N 44°06' E 022°58'1 2.9
2017-Dec-03 09:30N 44°06' E 023°00'1 3.0
2017-Dec-03 09:00N 44°05' E 023°02'1 2.7
2017-Dec-03 08:30N 44°04' E 023°03'1 2.7
2017-Dec-03 08:00N 44°02' E 023°02'1 2.7
2017-Dec-03 07:30N 44°01' E 023°01'1 2.5
2017-Dec-03 07:00N 44°01' E 022°60'1 2.9
2017-Dec-03 06:30N 44°00' E 022°58'1 2.8
2017-Dec-03 06:00N 44°00' E 022°56'1 3.0
2017-Dec-03 05:30N 43°60' E 022°54'1 2.8
2017-Dec-03 05:00N 43°59' E 022°53'2 3.1
2017-Dec-03 04:30N 43°57' E 022°52'2 3.5
2017-Dec-03 04:00N 43°55' E 022°52'1 2.8
2017-Dec-03 03:30N 43°54' E 022°51'1 2.5
2017-Dec-03 03:00N 43°53' E 022°50'2 3.0
2017-Dec-03 02:30N 43°51' E 022°51'1 2.8
2017-Dec-03 02:00N 43°50' E 022°52'1 2.8
2017-Dec-03 01:30N 43°50' E 022°54'2 3.1
2017-Dec-03 01:00N 43°49' E 022°56'1 2.9
2017-Dec-03 00:30N 43°49' E 022°58'1 2.9
2017-Dec-03 00:00N 43°49' E 022°60'2 3.1
2017-Dec-02 23:30N 43°48' E 023°02'1 2.4
2017-Dec-02 22:59N 43°48' E 023°03'1 2.7
2017-Dec-02 22:30N 43°48' E 023°05'1 2.9
2017-Dec-02 22:00N 43°48' E 023°07'2 2.7
2017-Dec-02 21:26N 43°49' E 023°09'1 2.7
2017-Dec-02 21:00N 43°49' E 023°11'1 2.9
2017-Dec-02 20:30N 43°50' E 023°12'2 2.9
2017-Dec-02 19:48N 43°50' E 023°15'1 3.0
2017-Dec-02 19:30N 43°51' E 023°16'2 2.9
2017-Dec-02 19:00N 43°51' E 023°18'1 2.3
2017-Dec-02 18:30N 43°51' E 023°20'2 3.0
2017-Dec-02 17:57N 43°51' E 023°22'1 3.0
2017-Dec-02 17:29N 43°51' E 023°24'5 2.8
2017-Dec-02 15:36N 43°49' E 023°31'  

Dump ship's entire track history